createdAt,value
2023-03-12T00:02:21.464Z,8.43
2023-03-12T00:04:48.296Z,8.07
2023-03-12T00:07:15.090Z,8.00
2023-03-12T00:09:41.895Z,8.27
2023-03-12T00:12:09.441Z,8.02
2023-03-12T00:14:36.836Z,6.18
2023-03-12T00:17:03.565Z,6.68
2023-03-12T00:19:30.444Z,5.90
2023-03-12T00:21:57.236Z,6.07
2023-03-12T00:24:24.154Z,6.07
2023-03-12T00:26:50.970Z,5.82
2023-03-12T00:29:17.715Z,6.18
2023-03-12T00:31:44.718Z,5.90
2023-03-12T00:34:11.751Z,5.57
2023-03-12T00:36:40.628Z,6.53
2023-03-12T00:39:07.660Z,5.55
2023-03-12T00:41:34.568Z,5.83
2023-03-12T00:44:01.444Z,5.65
2023-03-12T00:46:28.273Z,6.50
2023-03-12T00:48:55.074Z,5.70
2023-03-12T00:51:21.838Z,5.87
2023-03-12T00:53:48.604Z,6.38
2023-03-12T00:56:15.652Z,5.75
2023-03-12T00:58:43.247Z,5.72
2023-03-12T01:01:10.743Z,5.25
2023-03-12T01:03:38.064Z,4.68
2023-03-12T01:06:05.926Z,4.20
2023-03-12T01:08:33.118Z,4.75
2023-03-12T01:11:00.203Z,4.13
2023-03-12T01:13:27.160Z,4.82
2023-03-12T01:15:53.889Z,4.28
2023-03-12T01:18:20.910Z,4.80
2023-03-12T01:20:48.343Z,4.50
2023-03-12T01:23:16.156Z,5.22
2023-03-12T01:25:43.412Z,4.47
2023-03-12T01:28:10.150Z,4.85
2023-03-12T01:30:37.163Z,4.90
2023-03-12T01:33:04.474Z,4.53
2023-03-12T01:35:35.319Z,4.35
2023-03-12T01:38:02.054Z,4.03
2023-03-12T01:40:29.268Z,3.95
2023-03-12T01:42:58.630Z,3.85
2023-03-12T01:46:00.125Z,3.90
2023-03-12T01:48:42.747Z,4.13
2023-03-12T01:51:13.315Z,3.63
2023-03-12T01:53:43.980Z,3.50
2023-03-12T01:56:11.886Z,3.67
2023-03-12T01:58:45.593Z,3.73
2023-03-12T02:01:14.584Z,3.70
2023-03-12T02:03:41.950Z,3.33
2023-03-12T02:06:14.502Z,3.47
2023-03-12T02:08:45.677Z,3.77
2023-03-12T02:11:13.494Z,4.03
2023-03-12T02:13:41.007Z,4.15
2023-03-12T02:16:08.906Z,3.63
2023-03-12T02:18:35.970Z,3.50
2023-03-12T02:21:19.977Z,3.38
2023-03-12T02:23:49.538Z,3.30
2023-03-12T02:26:17.724Z,3.30
2023-03-12T02:28:45.924Z,3.05
2023-03-12T02:31:16.738Z,3.05
2023-03-12T02:33:43.745Z,3.22
2023-03-12T02:36:10.810Z,3.72
2023-03-12T02:38:43.325Z,3.47
2023-03-12T02:41:12.764Z,3.65
2023-03-12T02:43:40.601Z,3.00
2023-03-12T02:46:08.518Z,3.15
2023-03-12T02:48:35.772Z,2.78
2023-03-12T02:51:03.372Z,3.50
2023-03-12T02:53:30.245Z,3.35
2023-03-12T02:55:57.267Z,2.80
2023-03-12T02:58:24.463Z,3.38
2023-03-12T03:00:51.539Z,3.20
2023-03-12T03:03:18.634Z,3.38
2023-03-12T03:05:45.448Z,2.47
2023-03-12T03:08:12.308Z,3.53
2023-03-12T03:10:39.209Z,3.13
2023-03-12T03:13:06.280Z,3.20
2023-03-12T03:15:33.395Z,2.70
2023-03-12T03:18:03.754Z,3.35
2023-03-12T03:20:31.638Z,3.33
2023-03-12T03:22:58.601Z,2.67
2023-03-12T03:25:25.791Z,3.33
2023-03-12T03:27:52.604Z,2.50
2023-03-12T03:30:21.192Z,3.30
2023-03-12T03:32:50.635Z,2.72
2023-03-12T03:35:18.611Z,2.33
2023-03-12T03:37:45.756Z,2.90
2023-03-12T03:40:13.068Z,2.80
2023-03-12T03:42:40.356Z,3.00
2023-03-12T03:45:09.427Z,3.10
2023-03-12T03:47:37.211Z,3.27
2023-03-12T03:50:05.955Z,2.65
2023-03-12T03:52:33.099Z,3.28
2023-03-12T03:55:00.173Z,2.70
2023-03-12T03:57:28.026Z,2.63
2023-03-12T03:59:55.361Z,2.40
2023-03-12T04:02:22.757Z,2.95
2023-03-12T04:04:50.455Z,2.67
2023-03-12T04:07:19.418Z,3.33
2023-03-12T04:09:46.367Z,2.60
2023-03-12T04:12:13.259Z,2.60
2023-03-12T04:14:42.743Z,3.28
2023-03-12T04:17:10.603Z,2.38
2023-03-12T04:19:37.482Z,2.80
2023-03-12T04:22:05.792Z,2.80
2023-03-12T04:24:32.706Z,2.67
2023-03-12T04:26:59.641Z,2.47
2023-03-12T04:29:27.014Z,2.50
2023-03-12T04:31:54.380Z,2.20
2023-03-12T04:34:21.681Z,2.40
2023-03-12T04:36:50.755Z,2.30
2023-03-12T04:39:19.867Z,2.28
2023-03-12T04:41:49.364Z,2.53
2023-03-12T04:44:16.404Z,2.53
2023-03-12T04:46:43.511Z,2.55
2023-03-12T04:49:13.796Z,3.13
2023-03-12T04:51:42.225Z,2.60
2023-03-12T04:54:09.632Z,2.45
2023-03-12T04:56:37.878Z,3.03
2023-03-12T04:59:05.509Z,2.50
2023-03-12T05:01:35.378Z,3.08
2023-03-12T05:04:07.399Z,2.80
2023-03-12T05:06:34.753Z,3.20
2023-03-12T05:09:01.990Z,3.50
2023-03-12T05:11:28.884Z,3.70
2023-03-12T05:13:55.652Z,3.25
2023-03-12T05:16:23.905Z,3.15
2023-03-12T05:18:50.867Z,3.65
2023-03-12T05:21:20.517Z,3.42
2023-03-12T05:23:50.348Z,3.30
2023-03-12T05:26:23.674Z,3.30
2023-03-12T05:28:52.854Z,3.20
2023-03-12T05:31:21.597Z,3.28
2023-03-12T05:33:52.233Z,3.10
2023-03-12T05:36:20.330Z,3.47
2023-03-12T05:38:47.422Z,3.45
2023-03-12T05:41:27.876Z,3.40
2023-03-12T05:43:58.968Z,3.25
2023-03-12T05:46:28.144Z,3.33
2023-03-12T05:48:55.606Z,3.28
2023-03-12T05:51:22.716Z,3.63
2023-03-12T05:53:49.705Z,3.22
2023-03-12T05:56:17.800Z,3.88
2023-03-12T05:58:44.829Z,3.50
2023-03-12T06:01:18.686Z,3.67
2023-03-12T06:03:46.179Z,3.10
2023-03-12T06:06:13.172Z,2.95
2023-03-12T06:08:42.023Z,3.00
2023-03-12T06:11:10.039Z,3.43
2023-03-12T06:13:37.213Z,3.42
2023-03-12T06:16:11.836Z,3.10
2023-03-12T06:18:38.870Z,3.75
2023-03-12T06:21:13.079Z,3.03
2023-03-12T06:23:41.364Z,4.13
2023-03-12T06:26:11.954Z,3.70
2023-03-12T06:28:38.844Z,2.97
2023-03-12T06:31:06.290Z,3.15
2023-03-12T06:33:33.730Z,3.50
2023-03-12T06:36:02.694Z,3.08
2023-03-12T06:38:29.585Z,3.30
2023-03-12T06:40:58.691Z,3.28
2023-03-12T06:43:27.456Z,3.50
2023-03-12T06:45:55.930Z,3.10
2023-03-12T06:48:23.934Z,3.28
2023-03-12T06:50:51.494Z,3.60
2023-03-12T06:53:19.435Z,3.13
2023-03-12T06:55:47.158Z,3.40
2023-03-12T06:58:13.914Z,3.72
2023-03-12T07:00:40.846Z,3.42
2023-03-12T07:03:07.675Z,4.00
2023-03-12T07:05:34.741Z,4.00
2023-03-12T07:08:01.773Z,4.38
2023-03-12T07:10:29.496Z,3.80
2023-03-12T07:12:57.249Z,3.80
2023-03-12T07:15:24.441Z,4.43
2023-03-12T07:17:51.199Z,4.20
2023-03-12T07:20:18.390Z,4.18
2023-03-12T07:22:45.212Z,4.35
2023-03-12T07:25:12.198Z,4.03
2023-03-12T07:27:39.063Z,3.90
2023-03-12T07:30:06.506Z,4.68
2023-03-12T07:32:33.547Z,4.85
2023-03-12T07:35:00.515Z,3.97
2023-03-12T07:37:27.358Z,4.40
2023-03-12T07:39:54.733Z,3.90
2023-03-12T07:42:21.685Z,4.25
2023-03-12T07:44:48.637Z,3.88
2023-03-12T07:47:23.497Z,4.40
2023-03-12T07:49:51.800Z,3.92
2023-03-12T07:52:20.143Z,4.68
2023-03-12T07:54:47.913Z,5.28
2023-03-12T08:29:22.887Z,5.20
2023-03-12T08:32:03.780Z,5.40
2023-03-12T08:34:31.584Z,5.07
2023-03-12T08:36:58.475Z,5.25
2023-03-12T08:39:25.367Z,5.10
2023-03-12T08:41:55.210Z,5.38
2023-03-12T08:44:22.843Z,4.60
2023-03-12T08:46:49.804Z,4.93
2023-03-12T08:49:17.022Z,5.30
2023-03-12T08:51:43.765Z,5.25
2023-03-12T08:54:10.598Z,5.47
2023-03-12T08:56:41.768Z,5.00
2023-03-12T08:59:09.882Z,6.10
2023-03-12T09:01:37.264Z,5.70
2023-03-12T09:04:04.965Z,5.22
2023-03-12T09:06:33.474Z,5.57
2023-03-12T09:09:04.890Z,5.57
2023-03-12T09:11:35.694Z,5.47
2023-03-12T09:14:39.475Z,6.00
2023-03-12T09:16:50.140Z,6.03
2023-03-12T09:19:17.061Z,6.67
2023-03-12T09:21:43.928Z,6.85
2023-03-12T09:24:11.498Z,5.93
2023-03-12T09:26:38.325Z,6.72
2023-03-12T09:29:05.524Z,6.50
2023-03-12T09:31:33.251Z,7.73
2023-03-12T09:33:59.986Z,6.95
2023-03-12T09:36:26.815Z,7.28
2023-03-12T09:38:54.648Z,8.02
2023-03-12T09:41:25.713Z,8.75
2023-03-12T09:44:01.416Z,8.13
2023-03-12T09:46:37.668Z,7.82
2023-03-12T09:49:11.521Z,7.45
2023-03-12T09:51:52.530Z,8.85
2023-03-12T09:54:29.574Z,9.63
2023-03-12T09:57:00.634Z,8.60
2023-03-12T09:59:27.418Z,8.80
2023-03-12T10:01:58.256Z,8.98
2023-03-12T10:04:31.119Z,9.55
2023-03-12T10:07:02.746Z,9.80
2023-03-12T10:09:53.335Z,10.03
2023-03-12T10:12:58.207Z,10.30
2023-03-12T10:15:40.769Z,10.25
2023-03-12T10:18:52.080Z,10.20
2023-03-12T10:21:43.839Z,10.52
2023-03-12T10:24:20.411Z,10.53
2023-03-12T10:26:50.886Z,10.35
2023-03-12T10:29:19.315Z,9.73
2023-03-12T10:32:02.588Z,10.18
2023-03-12T10:34:50.178Z,10.43
2023-03-12T10:37:38.774Z,10.40
2023-03-12T10:40:06.284Z,10.77
2023-03-12T10:42:33.354Z,10.63
2023-03-12T10:45:05.920Z,11.15
2023-03-12T10:47:38.556Z,11.40
2023-03-12T10:50:23.764Z,10.80
2023-03-12T10:52:53.225Z,9.98
2023-03-12T10:55:30.492Z,10.13
2023-03-12T10:57:57.758Z,9.95
2023-03-12T11:00:27.390Z,10.98
2023-03-12T11:03:18.397Z,10.97
2023-03-12T11:05:50.255Z,10.60
2023-03-12T11:08:29.243Z,10.77
2023-03-12T11:10:58.781Z,10.88
2023-03-12T11:13:29.752Z,9.93
2023-03-12T11:15:59.788Z,10.03
2023-03-12T11:18:26.519Z,9.63
2023-03-12T11:21:11.499Z,10.48
2023-03-12T11:23:43.144Z,10.20
2023-03-12T11:26:23.971Z,9.77
2023-03-12T11:29:02.520Z,8.73
2023-03-12T11:31:33.772Z,8.68
2023-03-12T11:34:06.508Z,9.25
2023-03-12T11:36:41.884Z,9.63
2023-03-12T11:39:26.065Z,9.23
2023-03-12T11:42:08.203Z,8.00
2023-03-12T11:44:52.986Z,7.43
2023-03-12T11:47:47.061Z,7.38
2023-03-12T11:50:16.700Z,8.57
2023-03-12T11:53:20.594Z,8.23
2023-03-12T11:56:02.623Z,7.77
2023-03-12T11:58:41.266Z,5.60
2023-03-12T12:01:32.709Z,6.40
2023-03-12T12:04:31.816Z,6.65
2023-03-12T12:07:32.692Z,5.85
2023-03-12T12:10:26.332Z,6.30
2023-03-12T12:13:06.264Z,6.72
2023-03-12T12:15:54.941Z,5.47
2023-03-12T12:18:47.751Z,5.82
2023-03-12T12:21:32.556Z,5.50
2023-03-12T12:24:12.644Z,5.33
2023-03-12T12:26:51.773Z,5.78
2023-03-12T12:29:29.737Z,5.68
2023-03-12T12:32:02.608Z,6.15
2023-03-12T12:34:47.561Z,5.22
2023-03-12T12:37:33.189Z,4.70
2023-03-12T12:40:11.398Z,5.03
2023-03-12T12:42:58.463Z,6.40
2023-03-12T12:45:29.060Z,6.20
2023-03-12T12:48:02.729Z,5.90
2023-03-12T12:50:35.066Z,5.87
2023-03-12T12:53:04.605Z,4.90
2023-03-12T12:55:42.903Z,6.60
2023-03-12T12:58:23.070Z,6.97
2023-03-12T13:00:51.238Z,6.13
2023-03-12T13:03:22.043Z,5.93
2023-03-12T13:05:59.679Z,6.35
2023-03-12T13:08:35.813Z,5.50
2023-03-12T13:11:19.464Z,5.60
2023-03-12T13:13:51.456Z,6.95
2023-03-12T13:16:33.181Z,5.77
2023-03-12T13:19:03.301Z,7.13
2023-03-12T13:21:40.344Z,6.57
2023-03-12T13:24:18.475Z,6.43
2023-03-12T13:27:05.741Z,6.07
2023-03-12T13:29:38.567Z,7.27
2023-03-12T13:32:09.066Z,5.97
2023-03-12T13:34:45.569Z,6.93
2023-03-12T13:37:28.737Z,5.97
2023-03-12T13:39:59.043Z,6.85
2023-03-12T13:42:36.642Z,7.57
2023-03-12T13:45:27.444Z,6.10
2023-03-12T13:47:59.138Z,6.90
2023-03-12T13:50:26.691Z,6.60
2023-03-12T13:53:06.591Z,6.22
2023-03-12T13:55:36.269Z,5.93
2023-03-12T13:58:21.546Z,5.18
2023-03-12T14:01:03.878Z,5.55
2023-03-12T14:03:37.080Z,5.22
2023-03-12T14:06:04.780Z,6.35
2023-03-12T14:08:53.291Z,5.83
2023-03-12T14:11:38.810Z,5.53
2023-03-12T14:14:43.237Z,4.80
2023-03-12T14:17:24.408Z,4.95
2023-03-12T14:20:01.992Z,5.18
2023-03-12T14:22:39.193Z,4.77
2023-03-12T14:25:27.221Z,5.13
2023-03-12T14:27:54.117Z,5.70
2023-03-12T14:30:44.004Z,4.53
2023-03-12T14:33:14.365Z,5.53
2023-03-12T14:35:46.800Z,3.87
2023-03-12T14:38:34.137Z,3.58
2023-03-12T14:41:13.390Z,4.15
2023-03-12T14:43:42.968Z,3.88
2023-03-12T14:46:18.962Z,4.20
2023-03-12T14:48:49.376Z,3.80
2023-03-12T14:51:24.226Z,4.55
2023-03-12T14:53:52.374Z,3.38
2023-03-12T14:56:32.869Z,3.55
2023-03-12T14:59:02.724Z,4.22
2023-03-12T15:01:39.504Z,4.17
2023-03-12T15:04:15.251Z,3.88
2023-03-12T15:06:48.981Z,3.65
2023-03-12T15:09:24.845Z,3.85
2023-03-12T15:12:22.175Z,4.32
2023-03-12T15:14:52.883Z,3.80
2023-03-12T15:17:21.800Z,4.30
2023-03-12T15:19:49.392Z,4.07
2023-03-12T15:22:20.729Z,4.22
2023-03-12T15:24:48.296Z,4.32
2023-03-12T15:27:25.302Z,4.23
2023-03-12T15:29:52.630Z,4.57
2023-03-12T15:32:22.527Z,4.75
2023-03-12T15:34:49.913Z,4.57
2023-03-12T15:37:34.907Z,5.88
2023-03-12T15:40:06.476Z,4.10
2023-03-12T15:42:40.532Z,4.80
2023-03-12T15:45:21.788Z,4.20
2023-03-12T15:47:51.127Z,3.78
2023-03-12T15:50:22.210Z,3.80
2023-03-12T15:53:18.475Z,3.97
2023-03-12T15:56:09.011Z,3.20
2023-03-12T15:58:38.801Z,3.78
2023-03-12T16:01:15.213Z,3.90
2023-03-12T16:03:45.332Z,4.32
2023-03-12T16:06:20.570Z,5.17
2023-03-12T16:08:50.919Z,4.00
2023-03-12T16:11:23.391Z,4.03
2023-03-12T16:13:52.499Z,4.70
2023-03-12T16:16:19.300Z,4.63
2023-03-12T16:18:46.102Z,4.63
2023-03-12T16:21:12.887Z,4.10
2023-03-12T16:23:39.900Z,4.28
2023-03-12T16:26:07.117Z,5.20
2023-03-12T16:28:36.879Z,4.45
2023-03-12T16:31:09.913Z,4.33
2023-03-12T16:33:36.615Z,4.57
2023-03-12T16:36:03.615Z,4.05
2023-03-12T16:38:30.339Z,4.22
2023-03-12T16:40:57.997Z,5.30
2023-03-12T16:43:29.138Z,4.70
2023-03-12T16:45:57.803Z,4.88
2023-03-12T16:48:25.540Z,4.72
2023-03-12T16:50:55.776Z,4.30
2023-03-12T16:53:23.362Z,4.15
2023-03-12T16:55:54.404Z,4.47
2023-03-12T16:58:23.162Z,4.15
2023-03-12T17:00:52.033Z,4.82
2023-03-12T17:03:36.478Z,5.22
2023-03-12T17:06:07.099Z,4.40
2023-03-12T17:08:35.893Z,5.40
2023-03-12T17:11:04.381Z,4.35
2023-03-12T17:13:31.197Z,5.28
2023-03-12T17:15:57.979Z,3.83
2023-03-12T17:18:24.747Z,5.60
2023-03-12T17:20:51.826Z,3.97
2023-03-12T17:23:19.418Z,4.53
2023-03-12T17:25:46.866Z,5.72
2023-03-12T17:28:15.238Z,4.00
2023-03-12T17:30:42.513Z,6.43
2023-03-12T17:33:15.386Z,5.87
2023-03-12T17:35:42.638Z,5.45
2023-03-12T17:38:10.220Z,4.63
2023-03-12T17:40:44.528Z,4.38
2023-03-12T17:43:11.802Z,4.20
2023-03-12T17:45:38.691Z,4.43
2023-03-12T17:48:06.015Z,4.43
2023-03-12T17:50:32.791Z,4.70
2023-03-12T17:52:59.510Z,4.28
2023-03-12T17:55:26.219Z,4.47
2023-03-12T17:57:53.098Z,5.30
2023-03-12T18:00:21.860Z,3.72
2023-03-12T18:02:49.558Z,4.43
2023-03-12T18:05:16.385Z,4.57
2023-03-12T18:07:43.105Z,3.35
2023-03-12T18:10:11.117Z,3.60
2023-03-12T18:12:40.120Z,3.47
2023-03-12T18:15:08.451Z,3.67
2023-03-12T18:17:35.385Z,3.10
2023-03-12T18:20:09.268Z,3.15
2023-03-12T18:22:37.772Z,3.43
2023-03-12T18:25:05.394Z,2.30
2023-03-12T18:27:32.151Z,2.92
2023-03-12T18:29:59.028Z,3.08
2023-03-12T18:32:25.871Z,2.88
2023-03-12T18:34:53.247Z,2.23
2023-03-12T18:37:20.420Z,2.78
2023-03-12T18:39:48.033Z,2.78
2023-03-12T18:42:14.850Z,2.92
2023-03-12T18:44:41.730Z,2.97
2023-03-12T18:47:08.666Z,1.97
2023-03-12T18:49:35.415Z,2.30
2023-03-12T18:52:02.201Z,2.10
2023-03-12T18:54:28.989Z,2.20
2023-03-12T18:56:55.799Z,2.17
2023-03-12T18:59:22.530Z,2.10
2023-03-12T19:01:49.384Z,1.70
2023-03-12T19:04:18.284Z,2.13
2023-03-12T19:06:51.174Z,2.08
2023-03-12T19:09:19.032Z,2.00
2023-03-12T19:11:49.556Z,2.53
2023-03-12T19:14:16.846Z,2.80
2023-03-12T19:16:43.870Z,2.22
2023-03-12T19:19:10.892Z,2.13
2023-03-12T19:21:37.747Z,2.22
2023-03-12T19:24:04.760Z,2.13
2023-03-12T19:26:31.863Z,2.47
2023-03-12T19:28:58.554Z,2.17
2023-03-12T19:31:25.561Z,2.28
2023-03-12T19:33:52.676Z,2.22
2023-03-12T19:36:19.648Z,2.57
2023-03-12T19:38:46.473Z,2.08
2023-03-12T19:41:13.287Z,2.38
2023-03-12T19:43:40.792Z,1.90
2023-03-12T19:46:07.623Z,2.45
2023-03-12T19:48:34.577Z,3.40
2023-03-12T19:51:08.970Z,3.08
2023-03-12T19:53:36.384Z,2.50
2023-03-12T19:56:04.240Z,2.92
2023-03-12T19:58:31.150Z,3.30
2023-03-12T20:01:02.220Z,3.23
2023-03-12T20:03:30.177Z,3.03
2023-03-12T20:05:57.204Z,3.50
2023-03-12T20:08:27.826Z,4.38
2023-03-12T20:11:05.778Z,4.97
2023-03-12T20:13:32.982Z,4.63
2023-03-12T20:16:00.538Z,3.83
2023-03-12T20:18:27.665Z,3.67
2023-03-12T20:20:54.400Z,3.38
2023-03-12T20:23:21.128Z,5.03
2023-03-12T20:25:52.723Z,4.07
2023-03-12T20:28:19.517Z,4.35
2023-03-12T20:30:46.333Z,4.97
2023-03-12T20:33:13.664Z,4.50
2023-03-12T20:35:40.602Z,4.53
2023-03-12T20:38:07.434Z,4.47
2023-03-12T20:40:34.360Z,4.40
2023-03-12T20:43:04.661Z,4.88
2023-03-12T20:45:33.059Z,5.45
2023-03-12T20:48:00.693Z,5.28
2023-03-12T20:50:28.441Z,4.90
2023-03-12T20:52:55.315Z,3.97
2023-03-12T20:55:22.200Z,4.82
2023-03-12T20:57:49.131Z,5.22
2023-03-12T21:00:16.340Z,4.13
2023-03-12T21:02:43.242Z,4.00
2023-03-12T21:05:11.426Z,4.00
2023-03-12T21:07:38.283Z,5.28
2023-03-12T21:10:05.867Z,3.20
2023-03-12T21:12:32.812Z,4.05
2023-03-12T21:15:06.399Z,3.60
2023-03-12T21:17:34.458Z,4.07
2023-03-12T21:20:02.300Z,3.50
2023-03-12T21:22:30.706Z,4.45
2023-03-12T21:24:58.075Z,4.95
2023-03-12T21:27:24.854Z,4.33
2023-03-12T21:29:52.779Z,4.35
2023-03-12T21:32:20.504Z,4.07
2023-03-12T21:34:47.454Z,3.17
2023-03-12T21:37:14.611Z,4.35
2023-03-12T21:39:42.017Z,4.70
2023-03-12T21:42:08.863Z,4.22
2023-03-12T21:44:37.097Z,4.22
2023-03-12T21:47:05.296Z,5.82
2023-03-12T21:49:35.777Z,3.22
2023-03-12T21:52:03.736Z,4.93
2023-03-12T21:54:35.026Z,5.25
2023-03-12T21:57:03.037Z,4.68
2023-03-12T21:59:31.171Z,4.18
2023-03-12T22:01:58.369Z,4.88
2023-03-12T22:04:25.571Z,4.30
2023-03-12T22:06:52.346Z,4.28
2023-03-12T22:09:19.151Z,5.53
2023-03-12T22:11:45.890Z,4.35
2023-03-12T22:14:12.683Z,4.22
2023-03-12T22:16:39.679Z,5.03
2023-03-12T22:19:08.485Z,4.63
2023-03-12T22:21:35.305Z,5.00
2023-03-12T22:24:02.191Z,3.65
2023-03-12T22:26:29.023Z,4.72
2023-03-12T22:28:57.488Z,4.87
2023-03-12T22:31:27.178Z,5.03
2023-03-12T22:33:54.107Z,4.28
2023-03-12T22:36:21.839Z,4.53
2023-03-12T22:38:49.720Z,5.32
2023-03-12T22:41:25.202Z,4.63
2023-03-12T22:43:53.989Z,4.30
2023-03-12T22:46:23.174Z,5.07
2023-03-12T22:48:55.750Z,4.75
2023-03-12T22:51:23.348Z,5.28
2023-03-12T22:53:50.064Z,4.40
2023-03-12T22:56:17.429Z,5.40
2023-03-12T22:58:44.445Z,4.80
2023-03-12T23:01:13.893Z,4.30
2023-03-12T23:03:42.708Z,4.32
2023-03-12T23:06:15.044Z,4.33
2023-03-12T23:08:42.334Z,4.15
2023-03-12T23:11:10.580Z,4.90
2023-03-12T23:13:40.270Z,5.13
2023-03-12T23:16:15.583Z,3.97
2023-03-12T23:18:42.993Z,4.87
2023-03-12T23:21:15.519Z,4.80
2023-03-12T23:23:43.529Z,3.70
2023-03-12T23:26:37.564Z,5.03
2023-03-12T23:29:04.507Z,4.82
2023-03-12T23:31:31.342Z,3.70
2023-03-12T23:33:58.519Z,4.47
2023-03-12T23:36:25.783Z,5.22
2023-03-12T23:38:52.691Z,4.72
2023-03-12T23:41:25.515Z,4.50
2023-03-12T23:43:52.754Z,4.20
2023-03-12T23:46:20.054Z,4.45
2023-03-12T23:48:47.086Z,4.15
2023-03-12T23:51:16.506Z,4.88
2023-03-12T23:53:45.392Z,4.30
2023-03-12T23:56:18.156Z,4.00
2023-03-12T23:58:45.349Z,4.93
